sensor_id;sensor_type;location;lat;lon;timestamp;temperature;humidity
23186;DHT22;11761;51.324;4.590;2023-04-03T00:01:34;-0.10;99.90
23186;DHT22;11761;51.324;4.590;2023-04-03T00:04:01;-0.20;99.90
23186;DHT22;11761;51.324;4.590;2023-04-03T00:06:27;-0.20;99.90
23186;DHT22;11761;51.324;4.590;2023-04-03T00:08:53;-0.20;99.90
23186;DHT22;11761;51.324;4.590;2023-04-03T00:11:19;-0.20;99.90
23186;DHT22;11761;51.324;4.590;2023-04-03T00:13:46;-0.30;99.90
23186;DHT22;11761;51.324;4.590;2023-04-03T00:16:12;-0.30;99.90
23186;DHT22;11761;51.324;4.590;2023-04-03T00:18:39;-0.20;99.90
23186;DHT22;11761;51.324;4.590;2023-04-03T00:21:06;-0.30;99.90
23186;DHT22;11761;51.324;4.590;2023-04-03T00:23:33;-0.30;99.90
23186;DHT22;11761;51.324;4.590;2023-04-03T00:26:00;-0.30;99.90
23186;DHT22;11761;51.324;4.590;2023-04-03T00:28:26;-0.40;99.90
23186;DHT22;11761;51.324;4.590;2023-04-03T00:30:52;-0.30;99.90
23186;DHT22;11761;51.324;4.590;2023-04-03T00:33:19;-0.30;99.90
23186;DHT22;11761;51.324;4.590;2023-04-03T00:35:47;-0.40;99.90
23186;DHT22;11761;51.324;4.590;2023-04-03T00:38:14;-0.40;99.90
23186;DHT22;11761;51.324;4.590;2023-04-03T00:40:47;-0.40;99.90
23186;DHT22;11761;51.324;4.590;2023-04-03T00:45:43;-0.40;99.90
23186;DHT22;11761;51.324;4.590;2023-04-03T00:48:20;-0.40;99.90
23186;DHT22;11761;51.324;4.590;2023-04-03T00:50:47;-0.40;99.90
23186;DHT22;11761;51.324;4.590;2023-04-03T00:53:18;-0.50;99.90
23186;DHT22;11761;51.324;4.590;2023-04-03T00:55:47;-0.40;99.90
23186;DHT22;11761;51.324;4.590;2023-04-03T00:58:15;-0.40;99.90
23186;DHT22;11761;51.324;4.590;2023-04-03T01:00:47;-0.50;99.90
23186;DHT22;11761;51.324;4.590;2023-04-03T01:03:14;-0.50;99.90
23186;DHT22;11761;51.324;4.590;2023-04-03T01:05:40;-0.50;99.90
23186;DHT22;11761;51.324;4.590;2023-04-03T01:08:06;-0.50;99.90
23186;DHT22;11761;51.324;4.590;2023-04-03T01:10:33;-0.50;99.90
23186;DHT22;11761;51.324;4.590;2023-04-03T01:13:00;-0.50;99.90
23186;DHT22;11761;51.324;4.590;2023-04-03T01:15:27;-0.50;99.90
23186;DHT22;11761;51.324;4.590;2023-04-03T01:17:57;-0.50;99.90
23186;DHT22;11761;51.324;4.590;2023-04-03T01:25:38;-0.50;99.90
23186;DHT22;11761;51.324;4.590;2023-04-03T01:28:07;-0.50;99.90
23186;DHT22;11761;51.324;4.590;2023-04-03T01:33:17;-0.50;99.90
23186;DHT22;11761;51.324;4.590;2023-04-03T01:35:44;-0.50;99.90
23186;DHT22;11761;51.324;4.590;2023-04-03T01:38:10;-0.50;99.90
23186;DHT22;11761;51.324;4.590;2023-04-03T01:40:37;-0.50;99.90
23186;DHT22;11761;51.324;4.590;2023-04-03T01:43:03;-0.50;99.90
23186;DHT22;11761;51.324;4.590;2023-04-03T01:45:29;-0.60;99.90
23186;DHT22;11761;51.324;4.590;2023-04-03T01:47:57;-0.40;99.90
23186;DHT22;11761;51.324;4.590;2023-04-03T01:50:23;-0.50;99.90
23186;DHT22;11761;51.324;4.590;2023-04-03T01:52:49;-0.50;99.90
23186;DHT22;11761;51.324;4.590;2023-04-03T01:55:15;-0.60;99.90
23186;DHT22;11761;51.324;4.590;2023-04-03T01:57:41;-0.60;99.90
23186;DHT22;11761;51.324;4.590;2023-04-03T02:00:08;-0.60;99.90
23186;DHT22;11761;51.324;4.590;2023-04-03T02:02:35;-0.60;99.90
23186;DHT22;11761;51.324;4.590;2023-04-03T02:05:01;-0.50;99.90
23186;DHT22;11761;51.324;4.590;2023-04-03T02:07:27;-0.40;99.90
23186;DHT22;11761;51.324;4.590;2023-04-03T02:09:53;-0.40;99.90
23186;DHT22;11761;51.324;4.590;2023-04-03T02:12:19;-0.50;99.90
23186;DHT22;11761;51.324;4.590;2023-04-03T02:14:45;-0.50;99.90
23186;DHT22;11761;51.324;4.590;2023-04-03T02:17:11;-0.50;99.90
23186;DHT22;11761;51.324;4.590;2023-04-03T02:19:37;-0.60;99.90
23186;DHT22;11761;51.324;4.590;2023-04-03T02:22:04;-0.60;99.90
23186;DHT22;11761;51.324;4.590;2023-04-03T02:24:30;-0.60;99.90
23186;DHT22;11761;51.324;4.590;2023-04-03T02:26:58;-0.70;99.90
23186;DHT22;11761;51.324;4.590;2023-04-03T02:29:24;-0.70;99.90
23186;DHT22;11761;51.324;4.590;2023-04-03T02:31:50;-0.60;99.90
23186;DHT22;11761;51.324;4.590;2023-04-03T02:34:17;-0.60;99.90
23186;DHT22;11761;51.324;4.590;2023-04-03T02:36:43;-0.60;99.90
23186;DHT22;11761;51.324;4.590;2023-04-03T02:39:09;-0.60;99.90
23186;DHT22;11761;51.324;4.590;2023-04-03T02:41:35;-0.60;99.90
23186;DHT22;11761;51.324;4.590;2023-04-03T02:44:03;-0.60;99.90
23186;DHT22;11761;51.324;4.590;2023-04-03T02:46:29;-0.60;99.90
23186;DHT22;11761;51.324;4.590;2023-04-03T02:48:55;-0.60;99.90
23186;DHT22;11761;51.324;4.590;2023-04-03T02:51:20;-0.60;99.90
23186;DHT22;11761;51.324;4.590;2023-04-03T02:53:47;-0.60;99.90
23186;DHT22;11761;51.324;4.590;2023-04-03T02:56:12;-0.60;99.90
23186;DHT22;11761;51.324;4.590;2023-04-03T02:58:38;-0.60;99.90
23186;DHT22;11761;51.324;4.590;2023-04-03T03:01:04;-0.60;99.90
23186;DHT22;11761;51.324;4.590;2023-04-03T03:03:30;-0.60;99.90
23186;DHT22;11761;51.324;4.590;2023-04-03T03:06:07;-0.60;99.90
23186;DHT22;11761;51.324;4.590;2023-04-03T03:08:33;-0.60;99.90
23186;DHT22;11761;51.324;4.590;2023-04-03T03:11:00;-0.60;99.90
23186;DHT22;11761;51.324;4.590;2023-04-03T03:13:26;-0.70;99.90
23186;DHT22;11761;51.324;4.590;2023-04-03T03:15:52;-0.70;99.90
23186;DHT22;11761;51.324;4.590;2023-04-03T03:18:18;-0.70;99.90
23186;DHT22;11761;51.324;4.590;2023-04-03T03:20:44;-0.70;99.90
23186;DHT22;11761;51.324;4.590;2023-04-03T03:23:11;-0.70;99.90
23186;DHT22;11761;51.324;4.590;2023-04-03T03:25:40;-0.70;99.90
23186;DHT22;11761;51.324;4.590;2023-04-03T03:28:07;-0.70;99.90
23186;DHT22;11761;51.324;4.590;2023-04-03T03:30:33;-0.80;99.90
23186;DHT22;11761;51.324;4.590;2023-04-03T03:32:59;-0.80;99.90
23186;DHT22;11761;51.324;4.590;2023-04-03T03:35:25;-0.70;99.90
23186;DHT22;11761;51.324;4.590;2023-04-03T03:37:51;-0.70;99.90
23186;DHT22;11761;51.324;4.590;2023-04-03T03:40:17;-0.80;99.90
23186;DHT22;11761;51.324;4.590;2023-04-03T03:42:43;-0.80;99.90
23186;DHT22;11761;51.324;4.590;2023-04-03T03:45:09;-0.80;99.90
23186;DHT22;11761;51.324;4.590;2023-04-03T03:47:35;-0.80;99.90
23186;DHT22;11761;51.324;4.590;2023-04-03T03:50:02;-0.80;99.90
23186;DHT22;11761;51.324;4.590;2023-04-03T03:52:28;-0.80;99.90
23186;DHT22;11761;51.324;4.590;2023-04-03T03:54:56;-0.80;99.90
23186;DHT22;11761;51.324;4.590;2023-04-03T03:57:22;-0.80;99.90
23186;DHT22;11761;51.324;4.590;2023-04-03T03:59:48;-0.80;99.90
23186;DHT22;11761;51.324;4.590;2023-04-03T04:02:14;-0.70;99.90
23186;DHT22;11761;51.324;4.590;2023-04-03T04:04:40;-0.80;99.90
23186;DHT22;11761;51.324;4.590;2023-04-03T04:07:06;-0.80;99.90
23186;DHT22;11761;51.324;4.590;2023-04-03T04:09:32;-0.80;99.90
23186;DHT22;11761;51.324;4.590;2023-04-03T04:11:58;-0.90;99.90
23186;DHT22;11761;51.324;4.590;2023-04-03T04:14:24;-0.90;99.90
23186;DHT22;11761;51.324;4.590;2023-04-03T04:16:50;-0.90;99.90
23186;DHT22;11761;51.324;4.590;2023-04-03T04:19:16;-0.90;99.90
23186;DHT22;11761;51.324;4.590;2023-04-03T04:21:42;-0.90;99.90
23186;DHT22;11761;51.324;4.590;2023-04-03T04:24:08;-0.90;99.90
23186;DHT22;11761;51.324;4.590;2023-04-03T04:26:34;-0.90;99.90
23186;DHT22;11761;51.324;4.590;2023-04-03T04:29:00;-0.80;99.90
23186;DHT22;11761;51.324;4.590;2023-04-03T04:31:26;-0.80;99.90
23186;DHT22;11761;51.324;4.590;2023-04-03T04:33:53;-0.80;99.90
23186;DHT22;11761;51.324;4.590;2023-04-03T04:36:19;-0.80;99.90
23186;DHT22;11761;51.324;4.590;2023-04-03T04:38:45;-0.80;99.90
23186;DHT22;11761;51.324;4.590;2023-04-03T04:41:11;-0.80;99.90
23186;DHT22;11761;51.324;4.590;2023-04-03T04:43:37;-0.80;99.90
23186;DHT22;11761;51.324;4.590;2023-04-03T04:46:08;-0.80;99.90
23186;DHT22;11761;51.324;4.590;2023-04-03T04:48:35;-0.80;99.90
23186;DHT22;11761;51.324;4.590;2023-04-03T04:51:02;-0.80;99.90
23186;DHT22;11761;51.324;4.590;2023-04-03T04:53:28;-0.90;99.90
23186;DHT22;11761;51.324;4.590;2023-04-03T04:55:53;-0.90;99.90
23186;DHT22;11761;51.324;4.590;2023-04-03T04:58:20;-0.90;99.90
23186;DHT22;11761;51.324;4.590;2023-04-03T05:00:46;-0.90;99.90
23186;DHT22;11761;51.324;4.590;2023-04-03T05:03:12;-0.90;99.90
23186;DHT22;11761;51.324;4.590;2023-04-03T05:05:38;-0.90;99.90
23186;DHT22;11761;51.324;4.590;2023-04-03T05:08:04;-0.90;99.90
23186;DHT22;11761;51.324;4.590;2023-04-03T05:10:30;-0.90;99.90
23186;DHT22;11761;51.324;4.590;2023-04-03T05:12:57;-0.90;99.90
23186;DHT22;11761;51.324;4.590;2023-04-03T05:15:24;-0.80;99.90
23186;DHT22;11761;51.324;4.590;2023-04-03T05:17:49;-0.80;99.90
23186;DHT22;11761;51.324;4.590;2023-04-03T05:20:16;-0.90;99.90
23186;DHT22;11761;51.324;4.590;2023-04-03T05:22:42;-0.80;99.90
23186;DHT22;11761;51.324;4.590;2023-04-03T05:25:09;-0.90;99.90
23186;DHT22;11761;51.324;4.590;2023-04-03T05:27:35;-0.90;99.90
23186;DHT22;11761;51.324;4.590;2023-04-03T05:30:02;-0.80;99.90
23186;DHT22;11761;51.324;4.590;2023-04-03T05:32:28;-0.80;99.90
23186;DHT22;11761;51.324;4.590;2023-04-03T05:34:54;-0.70;99.90
23186;DHT22;11761;51.324;4.590;2023-04-03T05:37:20;-0.70;99.90
23186;DHT22;11761;51.324;4.590;2023-04-03T05:39:48;-0.70;99.90
23186;DHT22;11761;51.324;4.590;2023-04-03T05:42:14;-0.70;99.90
23186;DHT22;11761;51.324;4.590;2023-04-03T05:44:40;-0.60;99.90
23186;DHT22;11761;51.324;4.590;2023-04-03T05:47:06;-0.60;99.90
23186;DHT22;11761;51.324;4.590;2023-04-03T05:49:32;-0.50;99.90
23186;DHT22;11761;51.324;4.590;2023-04-03T05:52:00;-0.50;99.90
23186;DHT22;11761;51.324;4.590;2023-04-03T05:54:28;-0.40;99.90
23186;DHT22;11761;51.324;4.590;2023-04-03T05:56:54;-0.30;99.90
23186;DHT22;11761;51.324;4.590;2023-04-03T05:59:21;-0.10;99.90
23186;DHT22;11761;51.324;4.590;2023-04-03T06:01:47;0.00;99.90
23186;DHT22;11761;51.324;4.590;2023-04-03T06:04:14;0.30;99.90
23186;DHT22;11761;51.324;4.590;2023-04-03T06:07:06;0.60;99.90
23186;DHT22;11761;51.324;4.590;2023-04-03T06:09:33;0.90;99.90
23186;DHT22;11761;51.324;4.590;2023-04-03T06:11:59;1.00;99.90
23186;DHT22;11761;51.324;4.590;2023-04-03T06:14:26;1.00;99.90
23186;DHT22;11761;51.324;4.590;2023-04-03T06:16:52;1.10;99.90
23186;DHT22;11761;51.324;4.590;2023-04-03T06:19:20;1.30;99.90
23186;DHT22;11761;51.324;4.590;2023-04-03T06:21:46;1.30;99.90
23186;DHT22;11761;51.324;4.590;2023-04-03T06:24:15;1.30;99.90
23186;DHT22;11761;51.324;4.590;2023-04-03T06:26:42;1.50;99.90
23186;DHT22;11761;51.324;4.590;2023-04-03T06:29:08;1.60;99.90
23186;DHT22;11761;51.324;4.590;2023-04-03T06:31:34;1.80;99.90
23186;DHT22;11761;51.324;4.590;2023-04-03T06:34:03;2.10;99.90
23186;DHT22;11761;51.324;4.590;2023-04-03T06:36:29;2.40;99.90
23186;DHT22;11761;51.324;4.590;2023-04-03T06:38:56;4.30;99.90
23186;DHT22;11761;51.324;4.590;2023-04-03T06:41:22;6.30;99.90
23186;DHT22;11761;51.324;4.590;2023-04-03T06:43:48;6.70;99.90
23186;DHT22;11761;51.324;4.590;2023-04-03T06:46:17;7.30;99.90
23186;DHT22;11761;51.324;4.590;2023-04-03T06:48:44;8.50;99.90
23186;DHT22;11761;51.324;4.590;2023-04-03T06:51:29;8.70;99.90
23186;DHT22;11761;51.324;4.590;2023-04-03T06:53:58;9.60;99.90
23186;DHT22;11761;51.324;4.590;2023-04-03T06:56:25;8.80;99.90
23186;DHT22;11761;51.324;4.590;2023-04-03T06:58:52;6.30;99.90
23186;DHT22;11761;51.324;4.590;2023-04-03T07:01:20;6.10;99.90
23186;DHT22;11761;51.324;4.590;2023-04-03T07:03:48;5.10;99.90
23186;DHT22;11761;51.324;4.590;2023-04-03T07:06:15;4.40;99.90
23186;DHT22;11761;51.324;4.590;2023-04-03T07:08:42;7.00;99.90
23186;DHT22;11761;51.324;4.590;2023-04-03T07:11:12;9.60;99.90
23186;DHT22;11761;51.324;4.590;2023-04-03T07:13:38;11.10;99.90
23186;DHT22;11761;51.324;4.590;2023-04-03T07:16:05;12.30;99.90
23186;DHT22;11761;51.324;4.590;2023-04-03T07:18:32;10.10;99.90
23186;DHT22;11761;51.324;4.590;2023-04-03T07:20:59;9.60;99.90
23186;DHT22;11761;51.324;4.590;2023-04-03T07:23:26;9.60;99.90
23186;DHT22;11761;51.324;4.590;2023-04-03T07:25:52;8.60;99.90
23186;DHT22;11761;51.324;4.590;2023-04-03T07:28:20;8.00;99.90
23186;DHT22;11761;51.324;4.590;2023-04-03T07:30:48;9.20;99.90
23186;DHT22;11761;51.324;4.590;2023-04-03T07:33:18;11.00;99.90
23186;DHT22;11761;51.324;4.590;2023-04-03T07:35:47;8.00;99.90
23186;DHT22;11761;51.324;4.590;2023-04-03T07:38:14;7.00;99.90
23186;DHT22;11761;51.324;4.590;2023-04-03T07:40:40;8.40;99.90
23186;DHT22;11761;51.324;4.590;2023-04-03T07:43:12;9.10;99.90
23186;DHT22;11761;51.324;4.590;2023-04-03T07:45:38;9.60;99.90
23186;DHT22;11761;51.324;4.590;2023-04-03T07:48:04;9.00;99.90
23186;DHT22;11761;51.324;4.590;2023-04-03T07:50:30;9.80;99.90
23186;DHT22;11761;51.324;4.590;2023-04-03T07:52:58;11.80;99.90
23186;DHT22;11761;51.324;4.590;2023-04-03T07:55:25;10.30;99.90
23186;DHT22;11761;51.324;4.590;2023-04-03T07:57:52;9.20;99.90
23186;DHT22;11761;51.324;4.590;2023-04-03T08:00:18;9.50;99.90
23186;DHT22;11761;51.324;4.590;2023-04-03T08:02:45;10.00;99.90
23186;DHT22;11761;51.324;4.590;2023-04-03T08:05:20;11.20;99.90
23186;DHT22;11761;51.324;4.590;2023-04-03T08:07:47;10.40;99.90
23186;DHT22;11761;51.324;4.590;2023-04-03T08:10:14;9.70;99.90
23186;DHT22;11761;51.324;4.590;2023-04-03T08:12:41;9.40;99.90
23186;DHT22;11761;51.324;4.590;2023-04-03T08:15:08;11.20;99.90
23186;DHT22;11761;51.324;4.590;2023-04-03T08:17:34;12.70;99.90
23186;DHT22;11761;51.324;4.590;2023-04-03T08:20:02;12.50;99.90
23186;DHT22;11761;51.324;4.590;2023-04-03T08:22:29;13.40;99.90
23186;DHT22;11761;51.324;4.590;2023-04-03T08:24:55;12.60;99.90
23186;DHT22;11761;51.324;4.590;2023-04-03T08:27:21;12.00;99.90
23186;DHT22;11761;51.324;4.590;2023-04-03T08:29:47;13.70;99.90
23186;DHT22;11761;51.324;4.590;2023-04-03T08:32:13;13.20;99.90
23186;DHT22;11761;51.324;4.590;2023-04-03T08:34:39;13.60;99.90
23186;DHT22;11761;51.324;4.590;2023-04-03T08:37:05;11.50;99.90
23186;DHT22;11761;51.324;4.590;2023-04-03T08:39:32;13.60;99.90
23186;DHT22;11761;51.324;4.590;2023-04-03T08:42:00;13.30;99.90
23186;DHT22;11761;51.324;4.590;2023-04-03T08:44:47;13.50;99.90
23186;DHT22;11761;51.324;4.590;2023-04-03T08:47:24;13.70;99.90
23186;DHT22;11761;51.324;4.590;2023-04-03T08:50:00;14.10;99.90
23186;DHT22;11761;51.324;4.590;2023-04-03T08:52:54;14.10;99.90
23186;DHT22;11761;51.324;4.590;2023-04-03T08:55:29;13.20;99.90
23186;DHT22;11761;51.324;4.590;2023-04-03T08:58:02;13.00;99.90
23186;DHT22;11761;51.324;4.590;2023-04-03T09:00:48;14.50;99.90
23186;DHT22;11761;51.324;4.590;2023-04-03T09:03:20;12.10;99.90
23186;DHT22;11761;51.324;4.590;2023-04-03T09:08:55;12.50;99.90
23186;DHT22;11761;51.324;4.590;2023-04-03T09:11:44;11.40;99.90
23186;DHT22;11761;51.324;4.590;2023-04-03T09:14:17;11.90;99.90
23186;DHT22;11761;51.324;4.590;2023-04-03T09:19:41;12.10;99.90
23186;DHT22;11761;51.324;4.590;2023-04-03T09:22:26;11.80;99.90
23186;DHT22;11761;51.324;4.590;2023-04-03T09:25:05;10.10;99.90
23186;DHT22;11761;51.324;4.590;2023-04-03T09:27:36;8.90;99.90
23186;DHT22;11761;51.324;4.590;2023-04-03T09:30:02;8.80;99.90
23186;DHT22;11761;51.324;4.590;2023-04-03T09:32:30;9.50;99.90
23186;DHT22;11761;51.324;4.590;2023-04-03T09:35:01;8.80;99.90
23186;DHT22;11761;51.324;4.590;2023-04-03T09:37:39;8.80;99.90
23186;DHT22;11761;51.324;4.590;2023-04-03T09:40:11;8.90;99.90
23186;DHT22;11761;51.324;4.590;2023-04-03T09:42:54;9.40;99.90
23186;DHT22;11761;51.324;4.590;2023-04-03T09:45:34;10.10;99.90
23186;DHT22;11761;51.324;4.590;2023-04-03T09:50:54;11.90;99.90
23186;DHT22;11761;51.324;4.590;2023-04-03T09:53:30;12.70;99.90
23186;DHT22;11761;51.324;4.590;2023-04-03T09:55:57;10.80;99.90
23186;DHT22;11761;51.324;4.590;2023-04-03T09:58:29;10.90;99.90
23186;DHT22;11761;51.324;4.590;2023-04-03T10:00:58;10.60;99.90
23186;DHT22;11761;51.324;4.590;2023-04-03T10:03:33;11.30;99.90
23186;DHT22;11761;51.324;4.590;2023-04-03T10:06:03;11.20;99.90
23186;DHT22;11761;51.324;4.590;2023-04-03T10:08:31;11.20;99.90
23186;DHT22;11761;51.324;4.590;2023-04-03T10:13:33;13.90;99.90
23186;DHT22;11761;51.324;4.590;2023-04-03T10:16:10;13.10;99.90
23186;DHT22;11761;51.324;4.590;2023-04-03T10:19:09;11.60;99.90
23186;DHT22;11761;51.324;4.590;2023-04-03T10:21:59;12.10;99.90
23186;DHT22;11761;51.324;4.590;2023-04-03T10:27:55;11.70;99.90
23186;DHT22;11761;51.324;4.590;2023-04-03T10:39:04;10.50;99.90
23186;DHT22;11761;51.324;4.590;2023-04-03T10:41:53;10.50;99.90
23186;DHT22;11761;51.324;4.590;2023-04-03T10:53:24;10.80;99.90
23186;DHT22;11761;51.324;4.590;2023-04-03T10:56:15;10.50;99.90
23186;DHT22;11761;51.324;4.590;2023-04-03T10:58:53;10.80;99.90
23186;DHT22;11761;51.324;4.590;2023-04-03T11:01:30;10.70;99.90
23186;DHT22;11761;51.324;4.590;2023-04-03T11:03:59;10.60;99.90
23186;DHT22;11761;51.324;4.590;2023-04-03T11:09:39;9.40;99.90
23186;DHT22;11761;51.324;4.590;2023-04-03T11:12:28;10.50;99.90
23186;DHT22;11761;51.324;4.590;2023-04-03T11:15:01;10.20;99.90
23186;DHT22;11761;51.324;4.590;2023-04-03T11:17:39;9.70;99.90
23186;DHT22;11761;51.324;4.590;2023-04-03T11:20:53;10.10;99.90
23186;DHT22;11761;51.324;4.590;2023-04-03T11:23:23;9.80;99.90
23186;DHT22;11761;51.324;4.590;2023-04-03T11:25:53;9.90;99.90
23186;DHT22;11761;51.324;4.590;2023-04-03T11:28:21;10.00;99.90
23186;DHT22;11761;51.324;4.590;2023-04-03T11:36:25;10.80;99.90
23186;DHT22;11761;51.324;4.590;2023-04-03T11:38:55;10.50;99.90
23186;DHT22;11761;51.324;4.590;2023-04-03T11:41:27;10.40;99.90
23186;DHT22;11761;51.324;4.590;2023-04-03T11:44:12;10.50;99.90
23186;DHT22;11761;51.324;4.590;2023-04-03T11:46:54;10.50;99.90
23186;DHT22;11761;51.324;4.590;2023-04-03T11:49:59;10.60;99.90
23186;DHT22;11761;51.324;4.590;2023-04-03T12:24:27;10.70;98.50
23186;DHT22;11761;51.324;4.590;2023-04-03T12:46:11;11.50;97.60
23186;DHT22;11761;51.324;4.590;2023-04-03T12:48:52;11.80;96.30
23186;DHT22;11761;51.324;4.590;2023-04-03T12:51:42;11.90;97.20
23186;DHT22;11761;51.324;4.590;2023-04-03T12:54:25;11.80;94.20
23186;DHT22;11761;51.324;4.590;2023-04-03T12:57:21;11.00;93.90
23186;DHT22;11761;51.324;4.590;2023-04-03T12:59:48;11.50;96.30
23186;DHT22;11761;51.324;4.590;2023-04-03T13:02:31;10.60;91.90
23186;DHT22;11761;51.324;4.590;2023-04-03T13:05:07;10.70;93.10
23186;DHT22;11761;51.324;4.590;2023-04-03T13:07:36;10.40;93.40
23186;DHT22;11761;51.324;4.590;2023-04-03T13:12:52;11.00;93.40
23186;DHT22;11761;51.324;4.590;2023-04-03T13:17:49;11.00;92.90
23186;DHT22;11761;51.324;4.590;2023-04-03T13:20:24;11.10;93.60
23186;DHT22;11761;51.324;4.590;2023-04-03T13:25:27;11.30;94.50
23186;DHT22;11761;51.324;4.590;2023-04-03T13:27:55;11.40;91.50
23186;DHT22;11761;51.324;4.590;2023-04-03T13:30:35;11.50;94.20
23186;DHT22;11761;51.324;4.590;2023-04-03T13:33:05;10.60;90.90
23186;DHT22;11761;51.324;4.590;2023-04-03T13:35:40;11.20;93.00
23186;DHT22;11761;51.324;4.590;2023-04-03T13:38:26;10.90;91.50
23186;DHT22;11761;51.324;4.590;2023-04-03T13:40:57;11.10;92.30
23186;DHT22;11761;51.324;4.590;2023-04-03T13:43:26;11.40;93.60
23186;DHT22;11761;51.324;4.590;2023-04-03T13:48:40;11.20;92.40
23186;DHT22;11761;51.324;4.590;2023-04-03T13:51:27;10.80;92.00
23186;DHT22;11761;51.324;4.590;2023-04-03T13:54:10;10.60;91.60
23186;DHT22;11761;51.324;4.590;2023-04-03T13:56:40;11.00;91.70
23186;DHT22;11761;51.324;4.590;2023-04-03T14:04:43;10.50;90.00
23186;DHT22;11761;51.324;4.590;2023-04-03T14:07:12;10.00;89.60
23186;DHT22;11761;51.324;4.590;2023-04-03T14:09:38;10.30;90.40
23186;DHT22;11761;51.324;4.590;2023-04-03T14:14:52;10.00;90.30
23186;DHT22;11761;51.324;4.590;2023-04-03T14:17:22;10.20;90.90
23186;DHT22;11761;51.324;4.590;2023-04-03T14:19:50;10.20;88.20
23186;DHT22;11761;51.324;4.590;2023-04-03T14:22:18;10.20;90.60
23186;DHT22;11761;51.324;4.590;2023-04-03T14:24:45;10.00;89.70
23186;DHT22;11761;51.324;4.590;2023-04-03T14:27:17;10.20;87.20
23186;DHT22;11761;51.324;4.590;2023-04-03T14:29:44;10.20;89.20
23186;DHT22;11761;51.324;4.590;2023-04-03T14:32:14;10.20;90.40
23186;DHT22;11761;51.324;4.590;2023-04-03T14:34:43;10.20;89.80
23186;DHT22;11761;51.324;4.590;2023-04-03T14:37:16;10.20;91.20
23186;DHT22;11761;51.324;4.590;2023-04-03T14:39:43;10.10;89.60
23186;DHT22;11761;51.324;4.590;2023-04-03T14:42:20;10.00;87.90
23186;DHT22;11761;51.324;4.590;2023-04-03T14:44:47;10.10;90.90
23186;DHT22;11761;51.324;4.590;2023-04-03T14:47:23;10.10;91.60
23186;DHT22;11761;51.324;4.590;2023-04-03T14:49:50;10.10;89.00
23186;DHT22;11761;51.324;4.590;2023-04-03T14:52:27;10.20;91.60
23186;DHT22;11761;51.324;4.590;2023-04-03T14:54:54;9.90;90.10
23186;DHT22;11761;51.324;4.590;2023-04-03T14:57:23;9.70;91.20
23186;DHT22;11761;51.324;4.590;2023-04-03T14:59:51;9.90;91.70
23186;DHT22;11761;51.324;4.590;2023-04-03T15:02:34;9.80;89.60
23186;DHT22;11761;51.324;4.590;2023-04-03T15:05:02;9.60;90.30
23186;DHT22;11761;51.324;4.590;2023-04-03T15:07:41;9.60;92.00
23186;DHT22;11761;51.324;4.590;2023-04-03T15:10:15;9.90;91.30
23186;DHT22;11761;51.324;4.590;2023-04-03T15:12:42;9.80;90.40
23186;DHT22;11761;51.324;4.590;2023-04-03T15:15:09;9.60;89.70
23186;DHT22;11761;51.324;4.590;2023-04-03T15:17:35;9.70;92.60
23186;DHT22;11761;51.324;4.590;2023-04-03T15:20:03;9.70;90.30
23186;DHT22;11761;51.324;4.590;2023-04-03T15:22:29;9.60;89.10
23186;DHT22;11761;51.324;4.590;2023-04-03T15:24:55;9.60;91.70
23186;DHT22;11761;51.324;4.590;2023-04-03T15:27:21;9.70;92.30
23186;DHT22;11761;51.324;4.590;2023-04-03T15:29:47;9.70;90.30
23186;DHT22;11761;51.324;4.590;2023-04-03T15:32:13;9.70;91.00
23186;DHT22;11761;51.324;4.590;2023-04-03T15:34:39;9.60;90.50
23186;DHT22;11761;51.324;4.590;2023-04-03T15:37:06;9.60;90.40
23186;DHT22;11761;51.324;4.590;2023-04-03T15:39:32;9.60;91.50
23186;DHT22;11761;51.324;4.590;2023-04-03T15:41:58;9.70;91.70
23186;DHT22;11761;51.324;4.590;2023-04-03T15:44:33;9.60;91.30
23186;DHT22;11761;51.324;4.590;2023-04-03T15:47:00;9.50;90.70
23186;DHT22;11761;51.324;4.590;2023-04-03T15:49:27;9.70;92.00
23186;DHT22;11761;51.324;4.590;2023-04-03T15:51:53;9.70;92.10
23186;DHT22;11761;51.324;4.590;2023-04-03T15:54:19;9.70;92.80
23186;DHT22;11761;51.324;4.590;2023-04-03T15:56:46;9.60;92.80
23186;DHT22;11761;51.324;4.590;2023-04-03T15:59:12;9.60;93.20
23186;DHT22;11761;51.324;4.590;2023-04-03T16:01:38;9.70;93.60
23186;DHT22;11761;51.324;4.590;2023-04-03T16:04:07;9.60;93.00
23186;DHT22;11761;51.324;4.590;2023-04-03T16:06:33;9.50;93.40
23186;DHT22;11761;51.324;4.590;2023-04-03T16:09:00;9.60;93.20
23186;DHT22;11761;51.324;4.590;2023-04-03T16:11:27;9.60;94.20
23186;DHT22;11761;51.324;4.590;2023-04-03T16:13:53;9.50;92.90
23186;DHT22;11761;51.324;4.590;2023-04-03T16:16:23;9.60;93.50
23186;DHT22;11761;51.324;4.590;2023-04-03T16:18:50;9.50;92.80
23186;DHT22;11761;51.324;4.590;2023-04-03T16:21:16;9.60;93.40
23186;DHT22;11761;51.324;4.590;2023-04-03T16:23:43;9.50;94.40
23186;DHT22;11761;51.324;4.590;2023-04-03T16:26:09;9.60;94.20
23186;DHT22;11761;51.324;4.590;2023-04-03T16:28:35;9.60;94.00
23186;DHT22;11761;51.324;4.590;2023-04-03T16:31:02;9.60;93.40
23186;DHT22;11761;51.324;4.590;2023-04-03T16:33:29;9.40;92.90
23186;DHT22;11761;51.324;4.590;2023-04-03T16:35:55;9.40;93.90
23186;DHT22;11761;51.324;4.590;2023-04-03T16:38:23;9.20;93.40
23186;DHT22;11761;51.324;4.590;2023-04-03T16:40:56;9.20;94.10
23186;DHT22;11761;51.324;4.590;2023-04-03T16:43:29;9.10;94.60
23186;DHT22;11761;51.324;4.590;2023-04-03T16:45:56;9.00;94.30
23186;DHT22;11761;51.324;4.590;2023-04-03T16:48:24;8.90;94.20
23186;DHT22;11761;51.324;4.590;2023-04-03T16:50:50;8.90;94.20
23186;DHT22;11761;51.324;4.590;2023-04-03T16:53:23;8.90;93.90
23186;DHT22;11761;51.324;4.590;2023-04-03T16:55:49;8.80;94.50
23186;DHT22;11761;51.324;4.590;2023-04-03T16:58:22;8.80;94.40
23186;DHT22;11761;51.324;4.590;2023-04-03T17:00:48;8.70;94.60
23186;DHT22;11761;51.324;4.590;2023-04-03T17:03:14;8.60;95.70
23186;DHT22;11761;51.324;4.590;2023-04-03T17:05:40;8.60;94.90
23186;DHT22;11761;51.324;4.590;2023-04-03T17:08:05;8.60;96.40
23186;DHT22;11761;51.324;4.590;2023-04-03T17:10:31;8.50;96.50
23186;DHT22;11761;51.324;4.590;2023-04-03T17:12:59;8.40;96.60
23186;DHT22;11761;51.324;4.590;2023-04-03T17:15:25;8.30;96.70
23186;DHT22;11761;51.324;4.590;2023-04-03T17:17:51;8.30;96.40
23186;DHT22;11761;51.324;4.590;2023-04-03T17:20:18;8.20;96.90
23186;DHT22;11761;51.324;4.590;2023-04-03T17:22:45;8.10;97.50
23186;DHT22;11761;51.324;4.590;2023-04-03T17:25:13;8.10;96.80
23186;DHT22;11761;51.324;4.590;2023-04-03T17:27:41;8.00;97.00
23186;DHT22;11761;51.324;4.590;2023-04-03T17:30:08;7.90;97.40
23186;DHT22;11761;51.324;4.590;2023-04-03T17:32:35;7.90;97.30
23186;DHT22;11761;51.324;4.590;2023-04-03T17:35:03;7.90;97.40
23186;DHT22;11761;51.324;4.590;2023-04-03T17:37:29;7.80;98.20
23186;DHT22;11761;51.324;4.590;2023-04-03T17:39:55;7.80;98.10
23186;DHT22;11761;51.324;4.590;2023-04-03T17:42:22;7.70;98.00
23186;DHT22;11761;51.324;4.590;2023-04-03T17:44:49;7.50;99.20
23186;DHT22;11761;51.324;4.590;2023-04-03T17:47:16;7.60;98.80
23186;DHT22;11761;51.324;4.590;2023-04-03T17:49:42;7.50;98.80